createdAt,value
2023-04-18T00:00:39.917Z,5717.00
2023-04-18T00:01:39.987Z,5664.00
2023-04-18T00:02:40.203Z,5462.00
2023-04-18T00:03:40.204Z,5359.00
2023-04-18T00:04:40.138Z,5231.00
2023-04-18T00:05:40.121Z,5082.00
2023-04-18T00:06:40.159Z,5081.00
2023-04-18T00:07:40.228Z,5163.00
2023-04-18T00:08:40.215Z,5250.00
2023-04-18T00:09:40.324Z,5186.00
2023-04-18T00:10:40.308Z,5145.00
2023-04-18T00:11:40.353Z,5158.00
2023-04-18T00:12:40.403Z,5206.00
2023-04-18T00:13:40.406Z,5129.00
2023-04-18T00:14:40.426Z,5031.00
2023-04-18T00:15:40.490Z,4950.00
2023-04-18T00:16:40.548Z,4898.00
2023-04-18T00:17:40.576Z,4920.00
2023-04-18T00:18:40.583Z,4945.00
2023-04-18T00:19:40.597Z,4927.00
2023-04-18T00:20:40.622Z,4992.00
2023-04-18T00:21:40.642Z,5107.00
2023-04-18T00:22:40.673Z,5349.00
2023-04-18T00:23:40.734Z,5537.00
2023-04-18T00:24:40.826Z,5615.00
2023-04-18T00:25:40.841Z,5527.00
2023-04-18T00:26:40.831Z,5416.00
2023-04-18T00:27:40.825Z,5314.00
2023-04-18T00:28:40.824Z,5275.00
2023-04-18T00:29:40.844Z,5290.00
2023-04-18T00:30:40.918Z,5316.00
2023-04-18T00:31:40.878Z,5365.00
2023-04-18T00:32:40.927Z,5450.00
2023-04-18T00:33:40.861Z,5577.00
2023-04-18T00:34:40.866Z,5659.00
2023-04-18T00:35:40.910Z,5651.00
2023-04-18T00:36:40.870Z,5635.00
2023-04-18T00:37:40.891Z,5588.00
2023-04-18T00:38:40.902Z,5537.00
2023-04-18T00:39:40.919Z,5530.00
2023-04-18T00:40:40.917Z,5572.00
2023-04-18T00:41:40.936Z,5715.00
2023-04-18T00:42:40.959Z,5907.00
2023-04-18T00:43:40.935Z,5987.00
2023-04-18T00:44:40.950Z,5985.00
2023-04-18T00:45:40.939Z,6105.00
2023-04-18T00:46:41.121Z,6110.00
2023-04-18T00:47:41.037Z,5990.00
2023-04-18T00:48:41.056Z,5972.00
2023-04-18T00:49:41.156Z,5929.00
2023-04-18T00:50:41.204Z,5816.00
2023-04-18T00:51:41.251Z,5748.00
2023-04-18T00:52:41.301Z,5749.00
2023-04-18T00:53:41.318Z,5855.00
2023-04-18T00:54:41.315Z,5876.00
2023-04-18T00:55:41.345Z,5844.00
2023-04-18T00:56:41.341Z,5838.00
2023-04-18T00:57:41.339Z,5812.00
2023-04-18T00:58:41.345Z,5728.00
2023-04-18T00:59:41.360Z,5609.00
2023-04-18T01:00:41.400Z,5487.00
2023-04-18T01:01:41.422Z,5372.00
2023-04-18T01:02:41.479Z,5325.00
2023-04-18T01:03:41.569Z,5383.00
2023-04-18T01:04:41.471Z,5563.00
2023-04-18T01:05:41.485Z,5674.00
2023-04-18T01:06:41.485Z,5801.00
2023-04-18T01:07:41.546Z,5839.00
2023-04-18T01:08:41.458Z,5853.00
2023-04-18T01:09:41.481Z,5881.00
2023-04-18T01:10:41.461Z,5836.00
2023-04-18T01:11:41.465Z,5723.00
2023-04-18T01:12:41.509Z,5600.00
2023-04-18T01:13:41.489Z,5515.00
2023-04-18T01:14:41.490Z,5437.00
2023-04-18T01:15:41.544Z,5441.00
2023-04-18T01:16:41.506Z,5424.00
2023-04-18T01:17:41.539Z,5403.00
2023-04-18T01:18:41.516Z,5429.00
2023-04-18T01:19:41.535Z,5514.00
2023-04-18T01:20:41.536Z,5619.00
2023-04-18T01:21:41.523Z,5580.00
2023-04-18T01:22:41.541Z,5493.00
2023-04-18T01:23:41.536Z,5389.00
2023-04-18T01:24:41.564Z,5313.00
2023-04-18T01:25:41.543Z,5259.00
2023-04-18T01:26:41.562Z,5242.00
2023-04-18T01:27:41.571Z,5260.00
2023-04-18T01:28:41.557Z,5262.00
2023-04-18T01:29:41.559Z,5297.00
2023-04-18T01:30:41.592Z,5317.00
2023-04-18T01:31:41.643Z,5353.00
2023-04-18T01:32:41.630Z,5424.00
2023-04-18T01:33:41.606Z,5357.00
2023-04-18T01:34:41.607Z,5331.00
2023-04-18T01:35:41.620Z,5294.00
2023-04-18T01:36:41.627Z,5307.00
2023-04-18T01:37:41.621Z,5339.00
2023-04-18T01:38:41.628Z,5372.00
2023-04-18T01:39:41.654Z,5405.00
2023-04-18T01:40:41.649Z,5476.00
2023-04-18T01:41:41.656Z,5640.00
2023-04-18T01:42:41.662Z,5720.00
2023-04-18T01:43:41.648Z,5703.00
2023-04-18T01:44:41.670Z,5686.00
2023-04-18T01:45:41.668Z,5620.00
2023-04-18T01:46:41.769Z,5442.00
2023-04-18T01:47:41.701Z,5293.00
2023-04-18T01:48:41.689Z,5203.00
2023-04-18T01:49:41.689Z,5228.00
2023-04-18T01:50:41.731Z,5160.00
2023-04-18T01:51:41.703Z,5132.00
2023-04-18T01:52:41.722Z,5127.00
2023-04-18T01:53:41.722Z,5054.00
2023-04-18T01:54:41.712Z,4970.00
2023-04-18T01:55:41.728Z,4840.00
2023-04-18T01:56:41.714Z,4726.00
2023-04-18T01:57:41.730Z,4662.00
2023-04-18T01:58:41.729Z,4600.00
2023-04-18T01:59:41.724Z,4564.00
2023-04-18T02:00:41.818Z,4588.00
2023-04-18T02:01:41.756Z,4672.00
2023-04-18T02:02:41.924Z,4752.00
2023-04-18T02:03:41.911Z,4823.00
2023-04-18T02:04:41.737Z,4942.00
2023-04-18T02:05:41.772Z,4974.00
2023-04-18T02:06:41.779Z,4892.00
2023-04-18T02:07:41.758Z,4838.00
2023-04-18T02:08:41.763Z,4798.00
2023-04-18T02:09:41.760Z,4801.00
2023-04-18T02:10:41.790Z,4814.00
2023-04-18T02:11:41.779Z,4826.00
2023-04-18T02:12:41.760Z,4891.00
2023-04-18T02:13:41.787Z,4961.00
2023-04-18T02:14:41.765Z,4999.00
2023-04-18T02:15:41.796Z,5000.00
2023-04-18T02:16:41.853Z,5041.00
2023-04-18T02:17:42.138Z,5085.00
2023-04-18T02:18:41.811Z,5052.00
2023-04-18T02:19:41.795Z,5011.00
2023-04-18T02:20:41.803Z,4964.00
2023-04-18T02:21:41.813Z,4983.00
2023-04-18T02:22:41.819Z,5116.00
2023-04-18T02:23:41.801Z,5231.00
2023-04-18T02:24:41.835Z,5223.00
2023-04-18T02:25:41.846Z,5302.00
2023-04-18T02:26:41.849Z,5314.00
2023-04-18T02:27:41.889Z,5363.00
2023-04-18T02:28:41.889Z,5334.00
2023-04-18T02:29:41.904Z,5225.00
2023-04-18T02:30:41.914Z,5122.00
2023-04-18T02:31:41.954Z,5095.00
2023-04-18T02:32:41.998Z,5091.00
2023-04-18T02:33:41.937Z,5152.00
2023-04-18T02:34:41.960Z,5238.00
2023-04-18T02:35:41.956Z,5322.00
2023-04-18T02:36:41.964Z,5388.00
2023-04-18T02:37:41.971Z,5373.00
2023-04-18T02:38:41.979Z,5407.00
2023-04-18T02:39:41.989Z,5417.00
2023-04-18T02:40:42.004Z,5412.00
2023-04-18T02:41:42.004Z,5444.00
2023-04-18T02:42:42.006Z,5468.00
2023-04-18T02:43:42.017Z,5455.00
2023-04-18T02:44:42.032Z,5448.00
2023-04-18T02:45:42.107Z,5533.00
2023-04-18T02:46:42.070Z,5521.00
2023-04-18T02:47:53.554Z,5614.00
2023-04-18T02:48:43.047Z,5617.00
2023-04-18T02:49:42.059Z,5644.00
2023-04-18T02:50:42.025Z,5699.00
2023-04-18T02:51:42.019Z,5778.00
2023-04-18T02:52:42.014Z,5834.00
2023-04-18T02:53:42.004Z,5792.00
2023-04-18T02:54:42.015Z,5744.00
2023-04-18T02:55:41.999Z,5705.00
2023-04-18T02:56:41.993Z,5657.00
2023-04-18T02:57:41.987Z,5642.00
2023-04-18T02:58:41.967Z,5630.00
2023-04-18T02:59:41.969Z,5683.00
2023-04-18T03:00:41.969Z,5751.00
2023-04-18T03:01:42.000Z,5798.00
2023-04-18T03:02:42.070Z,5836.00
2023-04-18T03:03:41.932Z,5731.00
2023-04-18T03:04:41.982Z,5672.00
2023-04-18T03:05:41.913Z,5593.00
2023-04-18T03:06:41.916Z,5562.00
2023-04-18T03:07:41.900Z,5457.00
2023-04-18T03:08:41.903Z,5482.00
2023-04-18T03:09:41.893Z,5424.00
2023-04-18T03:10:41.877Z,5355.00
2023-04-18T03:11:41.873Z,5310.00
2023-04-18T03:12:41.876Z,5281.00
2023-04-18T03:13:41.858Z,5279.00
2023-04-18T03:14:41.854Z,5136.00
2023-04-18T03:15:41.906Z,4955.00
2023-04-18T03:16:41.879Z,4801.00
2023-04-18T03:17:41.940Z,4728.00
2023-04-18T03:18:41.913Z,4654.00
2023-04-18T03:19:41.948Z,4648.00
2023-04-18T03:20:41.942Z,4716.00
2023-04-18T03:21:41.943Z,4840.00
2023-04-18T03:22:41.965Z,5021.00
2023-04-18T03:23:41.974Z,5175.00
2023-04-18T03:24:41.974Z,5268.00
2023-04-18T03:25:41.997Z,5283.00
2023-04-18T03:26:41.997Z,5300.00
2023-04-18T03:27:42.115Z,5308.00
2023-04-18T03:28:42.122Z,5236.00
2023-04-18T03:29:42.039Z,5140.00
2023-04-18T03:30:42.057Z,5062.00
2023-04-18T03:31:42.142Z,5054.00
2023-04-18T03:32:42.182Z,5111.00
2023-04-18T03:33:42.067Z,5138.00
2023-04-18T03:34:42.083Z,5223.00
2023-04-18T03:35:42.091Z,5197.00
2023-04-18T03:36:42.130Z,5220.00
2023-04-18T03:37:42.136Z,5259.00
2023-04-18T03:38:42.139Z,5233.00
2023-04-18T03:39:42.161Z,5176.00
2023-04-18T03:40:42.156Z,5114.00
2023-04-18T03:41:42.183Z,5060.00
2023-04-18T03:42:42.148Z,4965.00
2023-04-18T03:43:42.169Z,4895.00
2023-04-18T03:44:42.164Z,4844.00
2023-04-18T03:45:42.180Z,4843.00
2023-04-18T03:46:42.275Z,4856.00
2023-04-18T03:47:42.241Z,4799.00
2023-04-18T03:48:42.237Z,4804.00
2023-04-18T03:49:42.271Z,4807.00
2023-04-18T03:50:42.283Z,4752.00
2023-04-18T03:51:42.288Z,4691.00
2023-04-18T03:52:42.318Z,4681.00
2023-04-18T03:53:42.323Z,4630.00
2023-04-18T03:54:42.356Z,4576.00
2023-04-18T03:55:42.368Z,4568.00
2023-04-18T03:56:42.394Z,4534.00
2023-04-18T03:57:42.430Z,4542.00
2023-04-18T03:58:42.445Z,4568.00
2023-04-18T03:59:42.461Z,4562.00
2023-04-18T04:00:42.555Z,4607.00
2023-04-18T04:01:42.544Z,4613.00
2023-04-18T04:02:42.626Z,4600.00
2023-04-18T04:03:42.688Z,4511.00
2023-04-18T04:04:42.595Z,4488.00
2023-04-18T04:05:42.564Z,4475.00
2023-04-18T04:06:42.582Z,4442.00
2023-04-18T04:07:42.605Z,4440.00
2023-04-18T04:08:42.619Z,4435.00
2023-04-18T04:09:42.632Z,4474.00
2023-04-18T04:10:42.612Z,4523.00
2023-04-18T04:11:42.630Z,4578.00
2023-04-18T04:12:42.641Z,4647.00
2023-04-18T04:13:42.652Z,4674.00
2023-04-18T04:14:42.666Z,4709.00
2023-04-18T04:15:42.683Z,4688.00
2023-04-18T04:16:42.724Z,4714.00
2023-04-18T04:17:42.731Z,4758.00
2023-04-18T04:18:42.746Z,4796.00
2023-04-18T04:19:42.722Z,4877.00
2023-04-18T04:20:42.724Z,4951.00
2023-04-18T04:21:42.748Z,5029.00
2023-04-18T04:22:42.742Z,5095.00
2023-04-18T04:23:42.819Z,5134.00
2023-04-18T04:24:42.787Z,5073.00
2023-04-18T04:25:42.787Z,5037.00
2023-04-18T04:26:42.834Z,4797.00
2023-04-18T04:27:42.816Z,4564.00
2023-04-18T04:28:42.842Z,4366.00
2023-04-18T04:29:42.866Z,4334.00
2023-04-18T04:30:42.885Z,4334.00
2023-04-18T04:31:42.945Z,4386.00
2023-04-18T04:32:43.064Z,4406.00
2023-04-18T04:33:42.960Z,4407.00
2023-04-18T04:34:42.991Z,4419.00
2023-04-18T04:35:43.025Z,4458.00
2023-04-18T04:36:43.071Z,4507.00
2023-04-18T04:37:43.063Z,4543.00
2023-04-18T04:38:43.095Z,4565.00
2023-04-18T04:39:43.126Z,4507.00
2023-04-18T04:40:43.146Z,4438.00
2023-04-18T04:41:43.164Z,4435.00
2023-04-18T04:42:43.210Z,4473.00
2023-04-18T04:43:43.233Z,4493.00
2023-04-18T04:44:43.316Z,4482.00
2023-04-18T04:45:43.338Z,4478.00
2023-04-18T04:46:43.301Z,4445.00
2023-04-18T04:47:43.366Z,4480.00
2023-04-18T04:48:43.371Z,4488.00
2023-04-18T04:49:43.400Z,4491.00
2023-04-18T04:50:43.408Z,4459.00
2023-04-18T04:51:43.432Z,4372.00
2023-04-18T04:52:43.461Z,4278.00
2023-04-18T04:53:43.476Z,4236.00
2023-04-18T04:54:43.511Z,4283.00
2023-04-18T04:55:43.539Z,4347.00
2023-04-18T04:56:43.569Z,4472.00
2023-04-18T04:57:43.608Z,4556.00
2023-04-18T04:58:43.610Z,4612.00
2023-04-18T04:59:43.652Z,4688.00
2023-04-18T05:00:43.637Z,4788.00
2023-04-18T05:01:43.744Z,4864.00
2023-04-18T05:02:43.760Z,4944.00
2023-04-18T05:03:43.988Z,4986.00
2023-04-18T05:04:43.786Z,5145.00
2023-04-18T05:05:43.692Z,5107.00
2023-04-18T05:06:43.705Z,5126.00
2023-04-18T05:07:43.711Z,5098.00
2023-04-18T05:08:43.701Z,5139.00
2023-04-18T05:09:43.747Z,5144.00
2023-04-18T05:10:43.712Z,5175.00
2023-04-18T05:11:43.699Z,5213.00
2023-04-18T05:12:43.731Z,5202.00
2023-04-18T05:13:43.706Z,5377.00
2023-04-18T05:14:43.701Z,5576.00
2023-04-18T05:15:43.697Z,5880.00
2023-04-18T05:16:43.744Z,6129.00
2023-04-18T05:17:43.815Z,6429.00
2023-04-18T05:18:43.830Z,6632.00
2023-04-18T05:19:43.885Z,6746.00
2023-04-18T05:20:43.958Z,6753.00
2023-04-18T05:21:44.010Z,6784.00
2023-04-18T05:22:44.089Z,6786.00
2023-04-18T05:23:44.156Z,6854.00
2023-04-18T05:24:44.187Z,6999.00
2023-04-18T05:25:44.270Z,7062.00
2023-04-18T05:26:44.295Z,7065.00
2023-04-18T05:27:44.331Z,7020.00
2023-04-18T05:28:44.874Z,6969.00
2023-04-18T05:29:44.442Z,6930.00
2023-04-18T05:30:44.522Z,6894.00
2023-04-18T05:31:44.528Z,6851.00
2023-04-18T05:32:44.567Z,6775.00
2023-04-18T05:33:44.677Z,6736.00
2023-04-18T05:34:44.744Z,6671.00
2023-04-18T05:35:44.659Z,6619.00
2023-04-18T05:36:44.684Z,6591.00
2023-04-18T05:37:44.691Z,6574.00
2023-04-18T05:38:44.717Z,6519.00
2023-04-18T05:39:44.727Z,6434.00
2023-04-18T05:40:44.767Z,6311.00
2023-04-18T05:41:44.821Z,6236.00
2023-04-18T05:42:44.817Z,6205.00
2023-04-18T05:43:54.188Z,6130.00
2023-04-18T05:44:45.857Z,6063.00
2023-04-18T05:45:44.820Z,6041.00
2023-04-18T05:46:44.830Z,6056.00
2023-04-18T05:47:44.836Z,6019.00
2023-04-18T05:48:44.871Z,5990.00
2023-04-18T05:49:44.830Z,5939.00
2023-04-18T05:50:44.801Z,5914.00
2023-04-18T05:51:44.782Z,5861.00
2023-04-18T05:52:44.826Z,5852.00
2023-04-18T05:53:44.789Z,5861.00
2023-04-18T05:54:44.796Z,5775.00
2023-04-18T05:55:44.903Z,5693.00
2023-04-18T05:56:44.734Z,5603.00
2023-04-18T05:57:44.738Z,5526.00
2023-04-18T05:58:44.748Z,5485.00
2023-04-18T05:59:44.833Z,5490.00
2023-04-18T06:00:44.830Z,5439.00
2023-04-18T06:01:44.857Z,5356.00
2023-04-18T06:02:44.976Z,5269.00
2023-04-18T06:03:45.536Z,5065.00
2023-04-18T06:04:45.352Z,4937.00
2023-04-18T06:05:45.151Z,4877.00
2023-04-18T06:06:45.045Z,4822.00
2023-04-18T06:07:45.068Z,4795.00
2023-04-18T06:08:45.077Z,4785.00
2023-04-18T06:09:45.108Z,4823.00
2023-04-18T06:10:45.145Z,4850.00
2023-04-18T06:11:45.307Z,4813.00
2023-04-18T06:12:45.249Z,4773.00
2023-04-18T06:13:45.389Z,4720.00
2023-04-18T06:14:45.344Z,4687.00
2023-04-18T06:15:45.434Z,4662.00
2023-04-18T06:16:45.394Z,4608.00
2023-04-18T06:17:45.438Z,4622.00
2023-04-18T06:18:45.486Z,4623.00
2023-04-18T06:19:45.550Z,4651.00
2023-04-18T06:20:45.574Z,4678.00
2023-04-18T06:21:45.588Z,4696.00
2023-04-18T06:22:45.638Z,4695.00
2023-04-18T06:23:45.665Z,4679.00
2023-04-18T06:24:45.753Z,4691.00
2023-04-18T06:25:45.791Z,4671.00
2023-04-18T06:26:45.890Z,4658.00
2023-04-18T06:27:45.927Z,4639.00
2023-04-18T06:28:45.984Z,4594.00
2023-04-18T06:29:46.043Z,4589.00
2023-04-18T06:30:46.122Z,4547.00
2023-04-18T06:31:46.247Z,4394.00
2023-04-18T06:32:46.282Z,4197.00
2023-04-18T06:33:46.403Z,4165.00
2023-04-18T06:34:46.368Z,4161.00
2023-04-18T06:35:46.425Z,4208.00
2023-04-18T06:36:46.496Z,4229.00
2023-04-18T06:37:46.563Z,4244.00
2023-04-18T06:38:46.622Z,4269.00
2023-04-18T06:39:46.690Z,4300.00
2023-04-18T06:40:46.854Z,4353.00
2023-04-18T06:41:46.836Z,4408.00
2023-04-18T06:42:46.863Z,4389.00
2023-04-18T06:44:02.196Z,4355.00
2023-04-18T06:44:47.921Z,4224.00
2023-04-18T06:45:47.515Z,4201.00
2023-04-18T06:46:46.891Z,4218.00
2023-04-18T06:47:46.885Z,4269.00
2023-04-18T06:48:46.870Z,4366.00
2023-04-18T06:49:46.895Z,4471.00
2023-04-18T06:50:46.858Z,4563.00
2023-04-18T06:51:46.851Z,4611.00
2023-04-18T06:52:46.845Z,4654.00
2023-04-18T06:53:46.853Z,4696.00
2023-04-18T06:54:46.875Z,4818.00
2023-04-18T06:55:46.886Z,4792.00
2023-04-18T06:56:47.078Z,4796.00
2023-04-18T06:57:46.979Z,4821.00
2023-04-18T06:58:47.416Z,4780.00
2023-04-18T06:59:47.101Z,4808.00
2023-04-18T07:00:47.116Z,4888.00
2023-04-18T07:01:47.084Z,4960.00
2023-04-18T07:02:47.259Z,4939.00
2023-04-18T07:03:47.673Z,4871.00
2023-04-18T07:04:47.199Z,4723.00
2023-04-18T07:05:47.129Z,4711.00
2023-04-18T07:06:47.162Z,4698.00
2023-04-18T07:07:47.165Z,4669.00
2023-04-18T07:08:47.261Z,4670.00
2023-04-18T07:09:47.215Z,4676.00
2023-04-18T07:10:47.230Z,4598.00
2023-04-18T07:11:47.235Z,4589.00
2023-04-18T07:12:47.348Z,4599.00
2023-04-18T07:13:47.235Z,4451.00
2023-04-18T07:14:47.263Z,4149.00
2023-04-18T07:15:47.320Z,3969.00
2023-04-18T07:16:47.320Z,3906.00
2023-04-18T07:17:47.308Z,3750.00
2023-04-18T07:18:47.276Z,3632.00
2023-04-18T07:19:47.269Z,3582.00
2023-04-18T07:20:47.314Z,3592.00
2023-04-18T07:21:47.325Z,3589.00
2023-04-18T07:22:47.489Z,3520.00
2023-04-18T07:23:47.513Z,3600.00
2023-04-18T07:24:47.418Z,3679.00
2023-04-18T07:25:47.931Z,3754.00
2023-04-18T07:26:47.431Z,3757.00
2023-04-18T07:27:47.400Z,3692.00
2023-04-18T07:28:47.416Z,3506.00
2023-04-18T07:29:47.469Z,3464.00
2023-04-18T07:30:47.921Z,3514.00
2023-04-18T07:31:47.418Z,3427.00
2023-04-18T07:32:47.478Z,3237.00
2023-04-18T07:33:47.459Z,3094.00
2023-04-18T07:34:47.457Z,2989.00
2023-04-18T07:35:47.892Z,2964.00
2023-04-18T07:36:47.472Z,3039.00
2023-04-18T07:37:47.473Z,2982.00
2023-04-18T07:38:47.546Z,3033.00
2023-04-18T07:39:47.560Z,3165.00
2023-04-18T07:40:47.911Z,3142.00
2023-04-18T07:41:47.650Z,2988.00
2023-04-18T07:42:47.716Z,2979.00
2023-04-18T07:43:47.771Z,2977.00
2023-04-18T07:44:47.990Z,2856.00
2023-04-18T07:45:47.908Z,2755.00
2023-04-18T07:46:47.953Z,2739.00
2023-04-18T07:47:47.986Z,2826.00
2023-04-18T07:48:48.033Z,3008.00
2023-04-18T07:49:48.412Z,3243.00
2023-04-18T07:50:48.088Z,3292.00
2023-04-18T07:51:48.158Z,3253.00
2023-04-18T07:52:48.166Z,3224.00
2023-04-18T07:53:48.196Z,3177.00
2023-04-18T07:54:48.270Z,3198.00
2023-04-18T07:55:48.282Z,3272.00
2023-04-18T07:56:48.307Z,3083.00
2023-04-18T07:57:48.322Z,2956.00
2023-04-18T07:58:48.348Z,2824.00
2023-04-18T07:59:48.396Z,2904.00
2023-04-18T08:00:48.529Z,2953.00
2023-04-18T08:01:48.432Z,2931.00
2023-04-18T08:02:48.576Z,2921.00
2023-04-18T08:03:48.546Z,2892.00
2023-04-18T08:04:48.537Z,2843.00
2023-04-18T08:05:48.536Z,2794.00
2023-04-18T08:06:48.525Z,2859.00
2023-04-18T08:07:48.555Z,2954.00
2023-04-18T08:08:48.588Z,3162.00
2023-04-18T08:09:48.626Z,3125.00
2023-04-18T08:10:48.670Z,2971.00
2023-04-18T08:11:48.640Z,2820.00
2023-04-18T08:12:48.670Z,2709.00
2023-04-18T08:13:48.678Z,2817.00
2023-04-18T08:14:48.952Z,2936.00
2023-04-18T08:15:48.735Z,2985.00
2023-04-18T08:16:48.743Z,2810.00
2023-04-18T08:17:48.715Z,2662.00
2023-04-18T08:18:48.738Z,2486.00
2023-04-18T08:19:48.922Z,2459.00
2023-04-18T08:20:48.919Z,2438.00
2023-04-18T08:21:48.732Z,2516.00
2023-04-18T08:23:05.240Z,2551.00
2023-04-18T08:23:49.724Z,2438.00
2023-04-18T08:25:03.781Z,2359.00
2023-04-18T08:25:49.723Z,2484.00
2023-04-18T08:26:48.698Z,2460.00
2023-04-18T08:27:48.710Z,2509.00
2023-04-18T08:28:48.706Z,2605.00
2023-04-18T08:29:48.669Z,2818.00
2023-04-18T08:30:48.721Z,2890.00
2023-04-18T08:31:48.731Z,2897.00
2023-04-18T08:32:48.740Z,2864.00
2023-04-18T08:33:48.744Z,2889.00
2023-04-18T08:34:48.775Z,3000.00
2023-04-18T08:35:48.881Z,3010.00
2023-04-18T08:36:48.896Z,2984.00
2023-04-18T08:37:48.970Z,2970.00
2023-04-18T08:38:48.997Z,2786.00
2023-04-18T08:39:49.034Z,2764.00
2023-04-18T08:40:49.130Z,2869.00
2023-04-18T08:41:49.186Z,2988.00
2023-04-18T08:42:49.256Z,3152.00
2023-04-18T08:43:49.283Z,3044.00
2023-04-18T08:44:49.359Z,3001.00
2023-04-18T08:45:49.403Z,2955.00
2023-04-18T08:46:49.447Z,2795.00
2023-04-18T08:47:49.543Z,2611.00
2023-04-18T08:48:49.539Z,2704.00
2023-04-18T08:49:49.610Z,2704.00
2023-04-18T08:50:49.622Z,2449.00
2023-04-18T08:51:49.656Z,2080.00
2023-04-18T08:52:49.709Z,1894.00
2023-04-18T08:53:49.728Z,1865.00
2023-04-18T08:54:49.823Z,1814.00
2023-04-18T08:55:49.823Z,1676.00
2023-04-18T08:56:49.944Z,1433.00
2023-04-18T08:57:49.918Z,1064.00
2023-04-18T08:58:49.977Z,886.00
2023-04-18T08:59:51.272Z,703.00
2023-04-18T09:00:50.041Z,627.00
2023-04-18T09:01:50.093Z,581.00
2023-04-18T09:02:50.251Z,557.00
2023-04-18T09:03:50.136Z,588.00
2023-04-18T09:04:50.147Z,535.00
2023-04-18T09:05:50.153Z,491.00
2023-04-18T09:06:50.169Z,495.00
2023-04-18T09:07:50.210Z,543.00
2023-04-18T09:08:50.205Z,550.00
2023-04-18T09:09:50.258Z,546.00
2023-04-18T09:10:50.212Z,552.00
2023-04-18T09:11:50.414Z,648.00
2023-04-18T09:12:50.685Z,709.00
2023-04-18T09:13:50.273Z,463.00
2023-04-18T09:14:50.292Z,400.00
2023-04-18T09:15:50.300Z,400.00
2023-04-18T09:16:50.517Z,400.00
2023-04-18T09:17:50.384Z,400.00
2023-04-18T09:18:50.330Z,400.00
2023-04-18T09:19:50.343Z,500.00
2023-04-18T09:20:50.357Z,497.00
2023-04-18T09:21:50.433Z,514.00
2023-04-18T09:22:50.512Z,570.00
2023-04-18T09:23:50.429Z,776.00
2023-04-18T09:24:50.478Z,795.00
2023-04-18T09:25:50.969Z,632.00
2023-04-18T09:26:50.512Z,567.00
2023-04-18T09:27:50.502Z,521.00
2023-04-18T09:28:52.084Z,519.00
2023-04-18T09:29:50.475Z,520.00
2023-04-18T09:30:50.977Z,523.00
2023-04-18T09:31:50.977Z,511.00
2023-04-18T09:32:50.500Z,500.00
2023-04-18T09:33:50.500Z,492.00
2023-04-18T09:34:50.455Z,466.00
2023-04-18T09:35:50.447Z,400.00
2023-04-18T09:36:51.018Z,443.00
2023-04-18T09:37:50.464Z,452.00
2023-04-18T09:38:50.443Z,490.00
2023-04-18T09:39:50.453Z,500.00
2023-04-18T09:40:50.417Z,541.00
2023-04-18T09:41:50.438Z,513.00
2023-04-18T09:42:50.427Z,521.00
2023-04-18T09:43:50.426Z,523.00
2023-04-18T09:44:50.404Z,544.00
2023-04-18T09:45:50.446Z,594.00
2023-04-18T09:46:50.382Z,757.00
2023-04-18T09:47:50.421Z,962.00
2023-04-18T09:48:50.397Z,1335.00
2023-04-18T09:49:50.404Z,1230.00
2023-04-18T09:50:50.395Z,1156.00
2023-04-18T09:51:50.461Z,1058.00
2023-04-18T09:52:50.354Z,897.00
2023-04-18T09:53:50.374Z,839.00
2023-04-18T09:54:50.320Z,826.00
2023-04-18T09:55:50.354Z,768.00
2023-04-18T09:56:50.323Z,881.00
2023-04-18T09:57:50.341Z,915.00
2023-04-18T09:58:50.295Z,954.00
2023-04-18T09:59:50.303Z,942.00
2023-04-18T10:00:50.468Z,930.00
2023-04-18T10:01:50.330Z,1056.00
2023-04-18T10:02:50.425Z,1120.00
2023-04-18T10:03:50.366Z,1078.00
2023-04-18T10:04:50.366Z,838.00
2023-04-18T10:05:50.353Z,885.00
2023-04-18T10:06:50.247Z,908.00
2023-04-18T10:07:50.245Z,974.00
2023-04-18T10:08:50.227Z,780.00
2023-04-18T10:09:50.231Z,711.00
2023-04-18T10:10:50.239Z,679.00
2023-04-18T10:11:50.230Z,664.00
2023-04-18T10:12:50.204Z,663.00
2023-04-18T10:13:50.257Z,789.00
2023-04-18T10:14:50.322Z,805.00
2023-04-18T10:15:50.413Z,813.00
2023-04-18T10:16:50.677Z,765.00
2023-04-18T10:18:03.524Z,699.00
2023-04-18T10:18:51.615Z,660.00
2023-04-18T10:19:50.497Z,655.00
2023-04-18T10:20:50.520Z,722.00
2023-04-18T10:21:50.947Z,763.00
2023-04-18T10:22:50.481Z,1007.00
2023-04-18T10:23:50.504Z,1151.00
2023-04-18T10:24:50.548Z,1108.00
2023-04-18T10:25:50.514Z,1351.00
2023-04-18T10:26:50.974Z,1451.00
2023-04-18T10:27:50.441Z,1429.00
2023-04-18T10:28:50.475Z,1329.00
2023-04-18T10:29:50.429Z,1342.00
2023-04-18T10:30:50.464Z,1451.00
2023-04-18T10:31:50.546Z,1363.00
2023-04-18T10:32:50.476Z,1218.00
2023-04-18T10:34:03.195Z,1201.00
2023-04-18T10:34:51.396Z,1189.00
2023-04-18T10:35:50.397Z,1195.00
2023-04-18T10:36:50.413Z,1018.00
2023-04-18T10:37:50.368Z,911.00
2023-04-18T10:38:50.389Z,920.00
2023-04-18T10:39:50.367Z,930.00
2023-04-18T10:40:50.959Z,994.00
2023-04-18T10:41:51.175Z,1087.00
2023-04-18T10:42:50.371Z,945.00
2023-04-18T10:43:50.339Z,827.00
2023-04-18T10:44:50.324Z,651.00
2023-04-18T10:45:50.332Z,824.00
2023-04-18T10:46:50.346Z,981.00
2023-04-18T10:47:50.321Z,1145.00
2023-04-18T10:48:50.305Z,1101.00
2023-04-18T10:49:50.319Z,980.00
2023-04-18T10:50:50.275Z,737.00
2023-04-18T10:51:50.293Z,610.00
2023-04-18T10:52:50.287Z,1436.00
2023-04-18T10:53:50.270Z,1265.00
2023-04-18T10:54:50.247Z,644.00
2023-04-18T10:55:50.253Z,629.00
2023-04-18T10:56:50.292Z,579.00
2023-04-18T10:57:50.236Z,503.00
2023-04-18T10:58:50.225Z,503.00
2023-04-18T10:59:50.242Z,501.00
2023-04-18T11:00:50.230Z,565.00
2023-04-18T11:01:50.231Z,597.00
2023-04-18T11:02:50.401Z,526.00
2023-04-18T11:03:50.239Z,493.00
2023-04-18T11:04:50.223Z,507.00
2023-04-18T11:05:50.225Z,519.00
2023-04-18T11:06:50.267Z,540.00
2023-04-18T11:07:50.264Z,599.00
2023-04-18T11:08:50.257Z,598.00
2023-04-18T11:09:50.325Z,608.00
2023-04-18T11:10:50.289Z,657.00
2023-04-18T11:11:50.332Z,656.00
2023-04-18T11:12:50.382Z,605.00
2023-04-18T11:13:50.420Z,523.00
2023-04-18T11:14:50.457Z,489.00
2023-04-18T11:15:50.444Z,516.00
2023-04-18T11:16:51.018Z,529.00
2023-04-18T11:17:50.539Z,641.00
2023-04-18T11:18:50.484Z,711.00
2023-04-18T11:19:50.465Z,661.00
2023-04-18T11:20:50.477Z,675.00
2023-04-18T11:21:50.489Z,662.00
2023-04-18T11:22:50.480Z,654.00
2023-04-18T11:23:50.512Z,637.00
2023-04-18T11:24:50.548Z,639.00
2023-04-18T11:25:50.567Z,634.00
2023-04-18T11:26:50.641Z,632.00
2023-04-18T11:27:50.712Z,651.00
2023-04-18T11:28:50.790Z,658.00
2023-04-18T11:29:50.823Z,749.00
2023-04-18T11:30:50.860Z,866.00
2023-04-18T11:31:50.932Z,940.00
2023-04-18T11:32:50.957Z,1044.00
2023-04-18T11:33:51.017Z,956.00
2023-04-18T11:34:51.050Z,1107.00
2023-04-18T11:35:51.086Z,1113.00
2023-04-18T11:36:51.168Z,1152.00
2023-04-18T11:37:51.248Z,1257.00
2023-04-18T11:38:51.254Z,1140.00
2023-04-18T11:39:51.302Z,1074.00
2023-04-18T11:40:51.461Z,902.00
2023-04-18T11:41:51.396Z,827.00
2023-04-18T11:42:51.425Z,963.00
2023-04-18T11:43:51.440Z,980.00
2023-04-18T11:44:51.509Z,1281.00
2023-04-18T11:45:51.548Z,1526.00
2023-04-18T11:46:51.555Z,1365.00
2023-04-18T11:47:51.547Z,1049.00
2023-04-18T11:48:51.582Z,963.00
2023-04-18T11:49:53.073Z,1140.00
2023-04-18T11:51:16.719Z,500.00
2023-04-18T11:52:16.703Z,500.00
2023-04-18T11:53:16.694Z,500.00
2023-04-18T11:54:16.710Z,500.00
2023-04-18T11:55:16.711Z,500.00
2023-04-18T11:56:16.666Z,449.00
2023-04-18T11:57:16.693Z,525.00
2023-04-18T11:58:16.652Z,673.00
2023-04-18T11:59:16.660Z,890.00
2023-04-18T12:00:16.651Z,943.00
2023-04-18T12:01:16.649Z,931.00
2023-04-18T12:02:17.256Z,859.00
2023-04-18T12:03:16.898Z,757.00
2023-04-18T12:04:16.856Z,730.00
2023-04-18T12:05:16.884Z,793.00
2023-04-18T12:06:16.656Z,718.00
2023-04-18T12:07:16.613Z,666.00
2023-04-18T12:08:16.599Z,960.00
2023-04-18T12:09:16.582Z,1163.00
2023-04-18T12:10:16.581Z,1245.00
2023-04-18T12:11:16.550Z,1170.00